KDOV

Dover Air Force Base

Airport
ICAO code
KDOV
IATA Code
DOV
Summary
ICAO Region
NAM
ICAO Territory
Location

Dover, Delaware

Serving
Dover
Elevation
29 ft
Coordinates
39° 7' 41" N , 75° 27' 52" W
KCC
Airport BS
Bird Strike
Metar
KDOV 122255Z 21006KT 10SM BKN060 OVC120 24/22 A3015 RMK AO2A SLP213 T02400219

Description

Dover Air Force Base or Dover AFB is a United States Air Force base located 2 nm southeast of the city of Dover, Delaware. Civilian use and a Civil Air Terminal are available on a prior permission basis.

Airport map

Aerial View

SKYbrary Partners:

Safety knowledge contributed by: